Time;durP1;ratioP1;P1;durP2;ratioP2;P2;SDS_P1;SDS_P2;PMS_P1;PMS_P2;Temp;Humidity;BMP_temperature;BMP_pressure;BME280_temperature;BME280_humidity;BME280_pressure;Samples;Min_cycle;Max_cycle;Signal;HPM_P1;HPM_P2
2023/06/26 07:56:07;;;;;;;;;;;;;;;9.50;100.00;99720.47;5720777;22;20384;-81
2023/06/26 07:58:33;;;;;;;;;;;;;;;9.37;100.00;99719.25;5024080;28;20016;-82
2023/06/26 08:00:58;;;;;;;;;;;;;;;9.62;100.00;99720.00;5022868;28;19918;-81
2023/06/26 08:03:23;;;;;;;;;;;;;;;9.63;100.00;99716.41;5041583;28;19917;-81
2023/06/26 08:05:49;;;;;;;;;;;;;;;9.66;100.00;99718.09;5042092;28;19920;-81
2023/06/26 08:08:14;;;;;;;;;;;;;;;9.62;100.00;99720.00;5023753;28;20003;-82
2023/06/26 08:10:39;;;;;;;;;;;;;;;9.63;100.00;99727.00;5040009;28;19920;-82
2023/06/26 08:13:04;;;;;;;;;;;;;;;9.72;100.00;99712.56;5041511;28;19917;-82
2023/06/26 08:15:30;;;;;;;;;;;;;;;9.66;100.00;99714.59;5023991;28;20399;-82
2023/06/26 08:17:55;;;;;;;;;;;;;;;9.68;100.00;99718.03;5041437;28;19921;-82
2023/06/26 08:20:22;;;;;;;;;;;;;;;9.73;100.00;99711.63;5044175;28;19923;-83
2023/06/26 08:22:49;;;;;;;;;;;;;;;9.68;100.00;99708.28;5027638;28;19983;-83
2023/06/26 08:25:14;;;;;;;;;;;;;;;9.61;100.00;99720.06;5044211;28;19921;-83
2023/06/26 08:27:39;;;;;;;;;;;;;;;9.61;100.00;99718.25;5045150;28;19920;-83
2023/06/26 08:30:05;;;;;;;;;;;;;;;9.58;100.00;99713.09;5027163;28;20449;-82
2023/06/26 08:32:30;;;;;;;;;;;;;;;9.52;100.00;99715.97;5044234;28;20331;-82
2023/06/26 08:34:55;;;;;;;;;;;;;;;9.57;100.00;99724.63;5045182;28;20019;-82
2023/06/26 08:37:20;;;;;;;;;;;;;;;9.47;100.00;99731.19;5026057;28;20292;-83
2023/06/26 08:39:46;;;;;;;;;;;;;;;9.41;100.00;99720.84;5044975;28;19920;-85
2023/06/26 08:42:11;;;;;;;;;;;;;;;9.37;100.00;99728.03;5044130;28;20375;-84
2023/06/26 08:44:36;;;;;;;;;;;;;;;9.33;100.00;99729.06;5027389;28;20275;-85
2023/06/26 08:47:03;;;;;;;;;;;;;;;9.30;100.00;99728.31;5044976;28;19923;-84
2023/06/26 08:49:28;;;;;;;;;;;;;;;9.24;100.00;99719.72;5044674;28;19917;-84
2023/06/26 08:52:10;;;;;;;;;;;;;;;9.33;100.00;99722.91;5044550;28;19982;-84
2023/06/26 08:54:40;;;;;;;;;;;;;;;9.29;100.00;99726.63;5044468;28;19921;-88
2023/06/26 08:57:07;;;;;;;;;;;;;;;9.24;100.00;99738.22;5042973;28;20327;-84
2023/06/26 08:59:32;;;;;;;;;;;;;;;9.34;100.00;99733.44;5043639;28;19924;-84
2023/06/26 09:01:57;;;;;;;;;;;;;;;9.33;100.00;99739.63;5044592;28;19917;-84
2023/06/26 09:04:23;;;;;;;;;;;;;;;9.31;100.00;99735.34;5045219;28;20291;-84
2023/06/26 09:06:48;;;;;;;;;;;;;;;9.28;100.00;99741.59;5044998;28;19921;-85
2023/06/26 09:09:13;;;;;;;;;;;;;;;9.47;100.00;99743.56;5044248;28;19955;-84
2023/06/26 09:11:39;;;;;;;;;;;;;;;9.38;100.00;99743.00;5043069;28;19924;-84
2023/06/26 09:14:07;;;;;;;;;;;;;;;9.49;100.00;99739.91;5045034;28;20731;-84
2023/06/26 09:16:32;;;;;;;;;;;;;;;9.33;100.00;99742.28;5044562;28;19925;-84
2023/06/26 09:18:57;;;;;;;;;;;;;;;9.22;100.00;99752.41;5044630;28;19917;-84
2023/06/26 09:21:24;;;;;;;;;;;;;;;9.20;100.00;99760.41;5043972;28;20011;-84
2023/06/26 09:23:49;;;;;;;;;;;;;;;9.13;100.00;99758.06;5044120;28;19999;-84
2023/06/26 09:26:16;;;;;;;;;;;;;;;9.12;100.00;99773.03;5043279;28;19917;-84
2023/06/26 09:28:42;;;;;;;;;;;;;;;9.06;100.00;99771.50;5044080;28;19921;-84
2023/06/26 09:31:07;;;;;;;;;;;;;;;9.16;100.00;99776.44;5041068;28;20391;-83
2023/06/26 09:33:34;;;;;;;;;;;;;;;9.25;100.00;99779.63;5043233;28;19921;-84
2023/06/26 09:35:59;;;;;;;;;;;;;;;9.44;100.00;99773.63;5043752;28;19921;-84
2023/06/26 09:38:24;;;;;;;;;;;;;;;9.35;100.00;99772.19;5041412;28;20003;-83
2023/06/26 09:40:50;;;;;;;;;;;;;;;9.46;100.00;99777.06;5042148;28;20291;-83
2023/06/26 09:43:15;;;;;;;;;;;;;;;9.40;100.00;99772.88;5042807;28;19952;-84
2023/06/26 09:45:41;;;;;;;;;;;;;;;9.35;100.00;99768.66;5042194;28;19925;-84
2023/06/26 09:48:08;;;;;;;;;;;;;;;9.34;100.00;99765.16;5043651;28;20268;-84
2023/06/26 09:50:34;;;;;;;;;;;;;;;9.34;100.00;99761.69;5040248;28;19921;-83
2023/06/26 09:53:06;;;;;;;;;;;;;;;9.24;100.00;99762.00;5042445;28;19931;-83
2023/06/26 09:55:34;;;;;;;;;;;;;;;9.19;100.00;99757.81;5039100;28;19965;-85
2023/06/26 09:58:00;;;;;;;;;;;;;;;9.21;100.00;99762.13;5042198;28;19925;-84
2023/06/26 10:00:25;;;;;;;;;;;;;;;9.14;100.00;99770.34;5042231;28;20287;-84
2023/06/26 10:02:50;;;;;;;;;;;;;;;9.13;100.00;99761.56;5041822;28;19932;-83
2023/06/26 10:05:16;;;;;;;;;;;;;;;9.18;100.00;99772.81;5043604;28;20398;-85
2023/06/26 10:07:41;;;;;;;;;;;;;;;9.17;100.00;99760.50;5043330;28;20325;-85
2023/06/26 10:10:07;;;;;;;;;;;;;;;9.15;100.00;99762.34;5041876;28;19924;-85
2023/06/26 10:12:34;;;;;;;;;;;;;;;9.09;100.00;99762.59;5043042;28;19921;-84
2023/06/26 10:15:01;;;;;;;;;;;;;;;9.13;100.00;99766.84;5043477;28;19924;-84
2023/06/26 10:17:32;;;;;;;;;;;;;;;9.19;100.00;99758.69;5042745;28;19979;-84
2023/06/26 10:20:09;;;;;;;;;;;;;;;9.24;100.00;99759.38;5042890;28;20015;-86
2023/06/26 10:22:41;;;;;;;;;;;;;;;9.28;100.00;99765.41;5043242;28;20331;-85
2023/06/26 10:25:08;;;;;;;;;;;;;;;9.30;100.00;99765.34;5041795;28;19924;-84
2023/06/26 10:27:36;;;;;;;;;;;;;;;9.32;100.00;99768.78;5024923;28;19917;-83
2023/06/26 10:30:03;;;;;;;;;;;;;;;9.25;100.00;99768.16;5042283;28;19928;-84
2023/06/26 10:32:29;;;;;;;;;;;;;;;9.14;100.00;99776.47;5043171;28;19944;-84
2023/06/26 10:34:55;;;;;;;;;;;;;;;9.14;100.00;99776.47;5042996;28;20411;-84
2023/06/26 10:37:20;;;;;;;;;;;;;;;9.12;100.00;99777.47;5024891;28;20450;-83
2023/06/26 10:39:49;;;;;;;;;;;;;;;9.17;100.00;99776.38;5042849;28;20009;-83
2023/06/26 10:42:16;;;;;;;;;;;;;;;9.21;100.00;99778.00;5041262;28;19921;-87
2023/06/26 10:44:47;;;;;;;;;;;;;;;9.17;100.00;99775.53;5041853;28;19940;-88
2023/06/26 10:47:32;;;;;;;;;;;;;;;9.12;100.00;99783.63;5021834;28;19985;-84
2023/06/26 10:50:15;;;;;;;;;;;;;;;9.10;100.00;99790.75;5042449;28;20435;-84
2023/06/26 10:52:41;;;;;;;;;;;;;;;9.09;100.00;99800.47;5042345;28;19917;-84
2023/06/26 10:55:08;;;;;;;;;;;;;;;9.07;100.00;99796.16;5041239;28;19917;-84
2023/06/26 10:57:35;;;;;;;;;;;;;;;9.00;100.00;99794.63;5042649;28;20011;-84
2023/06/26 11:00:13;;;;;;;;;;;;;;;9.18;100.00;99817.75;5043391;28;20392;-87
2023/06/26 11:02:49;;;;;;;;;;;;;;;9.31;100.00;99804.09;5042417;28;20360;-85
2023/06/26 11:05:23;;;;;;;;;;;;;;;9.37;100.00;99803.88;5041793;28;20012;-85
2023/06/26 11:08:08;;;;;;;;;;;;;;;9.35;100.00;99805.69;5042380;28;19936;-85
2023/06/26 11:10:52;;;;;;;;;;;;;;;9.26;100.00;99807.75;5040723;28;19924;-85
2023/06/26 11:13:19;;;;;;;;;;;;;;;9.05;100.00;99808.56;5042328;28;20283;-85
2023/06/26 11:15:44;;;;;;;;;;;;;;;9.16;100.00;99801.09;5042772;28;19921;-84
2023/06/26 11:18:10;;;;;;;;;;;;;;;9.16;100.00;99806.38;5042694;28;19917;-84
2023/06/26 11:20:36;;;;;;;;;;;;;;;9.23;100.00;99799.09;5042256;28;19983;-84
2023/06/26 11:23:03;;;;;;;;;;;;;;;9.30;100.00;99805.00;5042076;28;20287;-84
2023/06/26 11:25:29;;;;;;;;;;;;;;;9.24;100.00;99811.41;5040997;28;19928;-83
2023/06/26 11:27:56;;;;;;;;;;;;;;;9.19;100.00;99805.41;5042499;28;19935;-84
2023/06/26 11:30:23;;;;;;;;;;;;;;;9.08;100.00;99813.75;5041948;28;20382;-84
2023/06/26 11:32:48;;;;;;;;;;;;;;;9.07;100.00;99822.56;5041820;28;20463;-84
2023/06/26 11:35:21;;;;;;;;;;;;;;;8.96;100.00;99816.81;5041440;28;19960;-84
2023/06/26 11:37:47;;;;;;;;;;;;;;;8.98;100.00;99817.63;5041278;28;19928;-84
2023/06/26 11:40:18;;;;;;;;;;;;;;;8.88;100.00;99822.38;5040811;28;19917;-84
2023/06/26 11:42:44;;;;;;;;;;;;;;;9.06;100.00;99816.44;5040634;28;19924;-84
2023/06/26 11:45:10;;;;;;;;;;;;;;;8.97;100.00;99810.63;5041857;28;19917;-85
2023/06/26 11:47:38;;;;;;;;;;;;;;;9.04;100.00;99806.81;5042206;28;20019;-85
2023/06/26 11:50:04;;;;;;;;;;;;;;;9.02;100.00;99806.88;5041685;28;19921;-84
2023/06/26 11:52:29;;;;;;;;;;;;;;;8.96;100.00;99820.31;5041565;28;19913;-84
2023/06/26 11:54:54;;;;;;;;;;;;;;;8.87;100.00;99821.53;5044343;28;19984;-86
2023/06/26 11:57:20;;;;;;;;;;;;;;;8.88;100.00;99823.22;5044655;28;19936;-84
2023/06/26 11:59:45;;;;;;;;;;;;;;;8.88;100.00;99815.28;5044658;28;19917;-85
2023/06/26 12:02:13;;;;;;;;;;;;;;;8.83;100.00;99809.31;5045700;28;20177;-83
2023/06/26 12:04:41;;;;;;;;;;;;;;;8.84;100.00;99813.69;5046145;28;19963;-83
2023/06/26 12:07:08;;;;;;;;;;;;;;;8.82;100.00;99818.19;5045249;28;19944;-83
2023/06/26 12:09:38;;;;;;;;;;;;;;;8.89;100.00;99817.03;5045900;28;20279;-83
2023/06/26 12:12:03;;;;;;;;;;;;;;;8.84;100.00;99815.44;5044180;28;19921;-84
2023/06/26 12:14:29;;;;;;;;;;;;;;;8.85;100.00;99811.91;5045235;28;20514;-84
2023/06/26 12:16:54;;;;;;;;;;;;;;;8.83;100.00;99817.25;5027674;28;20272;-90
2023/06/26 12:19:24;;;;;;;;;;;;;;;8.86;100.00;99819.78;5027959;28;20030;-84
2023/06/26 12:21:53;;;;;;;;;;;;;;;8.90;100.00;99821.41;5045240;28;19964;-83
2023/06/26 12:24:19;;;;;;;;;;;;;;;8.90;100.00;99816.13;5026518;28;19917;-84
2023/06/26 12:26:45;;;;;;;;;;;;;;;8.80;100.00;99820.00;5043884;28;20063;-84
2023/06/26 12:29:12;;;;;;;;;;;;;;;8.90;100.00;99800.28;5045035;28;20346;-84
2023/06/26 12:31:44;;;;;;;;;;;;;;;8.94;100.00;99806.31;5027783;28;19917;-83
2023/06/26 12:34:14;;;;;;;;;;;;;;;8.95;100.00;99818.59;5044032;28;19929;-86
2023/06/26 12:36:48;;;;;;;;;;;;;;;8.98;100.00;99817.63;5044294;28;19931;-86
2023/06/26 12:39:15;;;;;;;;;;;;;;;9.16;100.00;99822.25;5027346;28;19921;-85
2023/06/26 12:41:44;;;;;;;;;;;;;;;9.08;100.00;99827.81;5043528;28;19925;-85
2023/06/26 12:44:16;;;;;;;;;;;;;;;9.04;100.00;99822.69;5045495;28;19920;-85
2023/06/26 12:46:41;;;;;;;;;;;;;;;9.07;100.00;99835.78;5026535;28;20344;-85
2023/06/26 12:49:07;;;;;;;;;;;;;;;9.12;100.00;99833.84;5044736;28;19970;-86
2023/06/26 12:51:32;;;;;;;;;;;;;;;9.08;100.00;99829.59;5045117;28;20296;-87
2023/06/26 12:53:57;;;;;;;;;;;;;;;9.08;100.00;99834.88;5042189;28;19940;-85
2023/06/26 12:56:22;;;;;;;;;;;;;;;9.08;100.00;99826.97;5043685;28;19921;-85
2023/06/26 12:58:48;;;;;;;;;;;;;;;9.33;100.00;99833.97;5026923;28;19923;-85
2023/06/26 13:01:16;;;;;;;;;;;;;;;9.92;100.00;99835.25;5045158;28;20444;-85
2023/06/26 13:03:42;;;;;;;;;;;;;;;10.28;100.00;99830.28;5043584;28;19927;-85
2023/06/26 13:06:07;;;;;;;;;;;;;;;10.52;100.00;99833.72;5044473;28;20356;-85
2023/06/26 13:08:33;;;;;;;;;;;;;;;9.86;100.00;99838.16;5044870;28;19920;-85
2023/06/26 13:10:58;;;;;;;;;;;;;;;9.59;100.00;99833.03;5043202;28;20284;-82
2023/06/26 13:13:24;;;;;;;;;;;;;;;9.57;100.00;99838.38;5044307;28;20304;-84
2023/06/26 13:15:49;;;;;;;;;;;;;;;9.39;100.00;99834.59;5044310;28;20129;-85
2023/06/26 13:18:14;;;;;;;;;;;;;;;9.46;100.00;99845.81;5044443;28;20314;-84
2023/06/26 13:20:40;;;;;;;;;;;;;;;9.36;100.00;99834.72;5044139;28;20334;-85
2023/06/26 13:23:05;;;;;;;;;;;;;;;9.40;100.00;99832.84;5044066;28;19928;-83
2023/06/26 13:25:30;;;;;;;;;;;;;;;9.63;100.00;99845.19;5043131;28;19924;-85
2023/06/26 13:27:56;;;;;;;;;;;;;;;10.29;100.00;99847.91;5044326;28;19951;-85
2023/06/26 13:30:21;;;;;;;;;;;;;;;10.59;100.00;99857.31;5043867;28;19964;-85
2023/06/26 13:32:46;;;;;;;;;;;;;;;10.98;100.00;99868.03;5044048;28;19928;-85
2023/06/26 13:35:12;;;;;;;;;;;;;;;10.38;100.00;99867.88;5044257;28;20003;-85
2023/06/26 13:37:37;;;;;;;;;;;;;;;9.86;100.00;99868.13;5026391;28;19921;-85
2023/06/26 13:40:06;;;;;;;;;;;;;;;9.71;100.00;99866.06;5043019;28;19968;-85
2023/06/26 13:42:32;;;;;;;;;;;;;;;9.68;100.00;99858.25;5043926;28;20395;-85
2023/06/26 13:44:57;;;;;;;;;;;;;;;9.56;100.00;99855.16;5043952;28;19925;-85
2023/06/26 13:47:23;;;;;;;;;;;;;;;9.69;100.00;99858.19;5044122;28;19913;-85
2023/06/26 13:49:48;;;;;;;;;;;;;;;9.48;100.00;99848.41;5044195;28;19995;-83
2023/06/26 13:52:13;;;;;;;;;;;;;;;9.47;100.00;99847.56;5043542;28;19921;-85
2023/06/26 13:54:40;;;;;;;;;;;;;;;9.47;100.00;99834.31;5043614;28;19921;-85
2023/06/26 13:57:05;;;;;;;;;;;;;;;9.36;100.00;99832.06;5042693;28;19921;-85
2023/06/26 13:59:31;;;;;;;;;;;;;;;9.36;100.00;99829.44;5043684;28;20291;-85
2023/06/26 14:01:56;;;;;;;;;;;;;;;9.31;100.00;99841.13;5043281;28;20044;-91
2023/06/26 14:04:22;;;;;;;;;;;;;;;9.25;100.00;99844.84;5025926;28;19920;-85
2023/06/26 14:06:47;;;;;;;;;;;;;;;9.28;100.00;99847.38;5043820;28;19927;-85
2023/06/26 14:09:12;;;;;;;;;;;;;;;9.19;100.00;99853.88;5043112;28;19956;-85
2023/06/26 14:11:38;;;;;;;;;;;;;;;9.29;100.00;99848.25;5042282;28;19974;-86
2023/06/26 14:14:03;;;;;;;;;;;;;;;9.19;100.00;99838.00;5025189;28;19923;-85
2023/06/26 14:16:29;;;;;;;;;;;;;;;9.30;100.00;99844.66;5043188;28;19928;-86
2023/06/26 14:18:55;;;;;;;;;;;;;;;9.35;100.00;99838.31;5042869;28;19924;-86
2023/06/26 14:21:20;;;;;;;;;;;;;;;9.25;100.00;99853.66;5043240;28;19920;-86
2023/06/26 14:23:46;;;;;;;;;;;;;;;9.36;100.00;99855.88;5042016;28;19979;-85
2023/06/26 14:26:11;;;;;;;;;;;;;;;9.55;100.00;99860.50;5041556;28;19921;-85
2023/06/26 14:28:36;;;;;;;;;;;;;;;10.25;100.00;99871.91;5043505;28;19917;-85
2023/06/26 14:31:02;;;;;;;;;;;;;;;10.74;100.00;99875.22;5042961;28;19943;-84
2023/06/26 14:33:27;;;;;;;;;;;;;;;11.05;100.00;99877.41;5042896;28;20350;-84
2023/06/26 14:35:52;;;;;;;;;;;;;;;11.03;100.00;99873.13;5042827;28;20435;-84
2023/06/26 14:38:18;;;;;;;;;;;;;;;10.15;100.00;99867.00;5043549;28;19923;-84
2023/06/26 14:40:43;;;;;;;;;;;;;;;10.08;100.00;99870.78;5041450;28;19956;-84
2023/06/26 14:43:08;;;;;;;;;;;;;;;9.99;100.00;99866.72;5042486;28;20399;-84
2023/06/26 14:45:34;;;;;;;;;;;;;;;10.00;100.00;99855.22;5042697;28;19917;-86
2023/06/26 14:47:59;;;;;;;;;;;;;;;9.94;100.00;99860.75;5042963;28;19925;-83
2023/06/26 14:50:24;;;;;;;;;;;;;;;9.76;100.00;99859.66;5042683;28;19918;-84
2023/06/26 14:52:49;;;;;;;;;;;;;;;9.63;100.00;99863.72;5042416;28;19951;-84
2023/06/26 14:55:15;;;;;;;;;;;;;;;9.52;100.00;99869.41;5041047;28;19974;-84
2023/06/26 14:57:40;;;;;;;;;;;;;;;9.49;100.00;99860.72;5042945;28;19929;-83
2023/06/26 15:00:06;;;;;;;;;;;;;;;9.50;100.00;99855.38;5036592;28;19921;-84
2023/06/26 15:02:31;;;;;;;;;;;;;;;9.47;100.00;99847.56;5037141;28;20027;-84
2023/06/26 15:04:56;;;;;;;;;;;;;;;9.40;100.00;99862.78;5040185;28;20316;-83
2023/06/26 15:07:22;;;;;;;;;;;;;;;9.38;100.00;99861.09;5038771;28;19929;-86
2023/06/26 15:09:48;;;;;;;;;;;;;;;9.42;100.00;99865.38;5039070;28;19924;-89
2023/06/26 15:12:13;;;;;;;;;;;;;;;9.44;100.00;99866.19;5018227;28;19982;-84
2023/06/26 15:14:39;;;;;;;;;;;;;;;9.25;100.00;99858.94;5039711;28;19928;-84
2023/06/26 15:17:07;;;;;;;;;;;;;;;9.29;100.00;99864.13;5040387;28;19921;-84
2023/06/26 15:19:33;;;;;;;;;;;;;;;9.49;100.00;99858.06;5034556;28;19972;-84
2023/06/26 15:21:58;;;;;;;;;;;;;;;9.39;100.00;99857.56;5038818;28;20446;-84
2023/06/26 15:24:23;;;;;;;;;;;;;;;9.42;100.00;99865.38;5038945;28;19928;-85
2023/06/26 15:26:49;;;;;;;;;;;;;;;9.36;100.00;99865.59;5031089;28;20247;-86
2023/06/26 15:29:15;;;;;;;;;;;;;;;9.59;100.00;99857.69;5037641;28;19928;-83
2023/06/26 15:31:40;;;;;;;;;;;;;;;10.46;100.00;99864.91;5039527;28;19920;-87
2023/06/26 15:34:06;;;;;;;;;;;;;;;10.75;100.00;99865.50;5041549;28;20067;-83
2023/06/26 15:36:31;;;;;;;;;;;;;;;10.84;100.00;99854.50;5040260;28;19924;-83
2023/06/26 15:38:56;;;;;;;;;;;;;;;10.11;100.00;99859.22;5042213;28;19924;-83
2023/06/26 15:41:22;;;;;;;;;;;;;;;9.89;100.00;99859.19;5039421;28;20459;-84
2023/06/26 15:43:48;;;;;;;;;;;;;;;9.76;100.00;99854.38;5042822;28;19924;-83
2023/06/26 15:46:13;;;;;;;;;;;;;;;9.58;100.00;99853.31;5040543;28;19925;-83
2023/06/26 15:48:38;;;;;;;;;;;;;;;9.54;100.00;99851.72;5042120;28;19922;-85
2023/06/26 15:51:04;;;;;;;;;;;;;;;9.41;100.00;99845.13;5041998;28;20372;-85
2023/06/26 15:53:39;;;;;;;;;;;;;;;9.29;100.00;99856.19;5041620;28;19917;-85
2023/06/26 15:56:08;;;;;;;;;;;;;;;9.37;100.00;99857.63;5040221;28;19917;-85
2023/06/26 15:58:34;;;;;;;;;;;;;;;9.31;100.00;99857.84;5038977;28;19921;-86
2023/06/26 16:01:00;;;;;;;;;;;;;;;9.31;100.00;99860.47;5040890;28;20003;-85
2023/06/26 16:03:25;;;;;;;;;;;;;;;9.38;100.00;99858.47;5041802;28;20003;-85
2023/06/26 16:05:50;;;;;;;;;;;;;;;9.26;100.00;99860.63;5041357;28;19944;-85
2023/06/26 16:08:15;;;;;;;;;;;;;;;9.36;100.00;99857.66;5041874;28;19920;-84
2023/06/26 16:10:41;;;;;;;;;;;;;;;9.26;100.00;99849.22;5040375;28;19964;-84
2023/06/26 16:13:06;;;;;;;;;;;;;;;9.27;100.00;99857.09;5041272;28;19927;-84
2023/06/26 16:15:34;;;;;;;;;;;;;;;9.27;100.00;99857.09;5041430;28;19917;-84
2023/06/26 16:17:59;;;;;;;;;;;;;;;9.27;100.00;99854.44;5035490;28;19929;-84
2023/06/26 16:20:25;;;;;;;;;;;;;;;9.25;100.00;99853.66;5034687;28;19928;-84
2023/06/26 16:22:50;;;;;;;;;;;;;;;9.30;100.00;99847.31;5036468;28;20385;-84
2023/06/26 16:25:15;;;;;;;;;;;;;;;9.22;100.00;99852.88;5036387;28;19925;-84
2023/06/26 16:27:41;;;;;;;;;;;;;;;9.12;100.00;99844.41;5036395;28;20295;-84
2023/06/26 16:30:07;;;;;;;;;;;;;;;9.27;100.00;99857.09;5042012;28;20393;-84
2023/06/26 16:32:32;;;;;;;;;;;;;;;9.26;100.00;99863.28;5040992;28;19924;-85
2023/06/26 16:34:57;;;;;;;;;;;;;;;9.21;100.00;99857.31;5024284;28;19925;-84
2023/06/26 16:37:22;;;;;;;;;;;;;;;9.19;100.00;99858.25;5037443;28;20018;-84
2023/06/26 16:39:47;;;;;;;;;;;;;;;9.22;100.00;99864.34;5040871;28;19925;-84
2023/06/26 16:42:13;;;;;;;;;;;;;;;9.29;100.00;99854.38;5035664;28;20283;-85
2023/06/26 16:44:38;;;;;;;;;;;;;;;9.25;100.00;99865.97;5042509;28;19925;-84
2023/06/26 16:47:03;;;;;;;;;;;;;;;9.15;100.00;99857.53;5043163;28;19925;-85
2023/06/26 16:49:29;;;;;;;;;;;;;;;9.25;100.00;99866.88;5041110;28;19932;-85
2023/06/26 16:51:56;;;;;;;;;;;;;;;9.38;100.00;99858.47;5044172;28;19921;-84
2023/06/26 16:54:22;;;;;;;;;;;;;;;9.22;100.00;99884.59;5044767;28;20300;-84
2023/06/26 16:56:51;;;;;;;;;;;;;;;9.32;100.00;99874.56;5034021;28;19921;-85
2023/06/26 16:59:16;;;;;;;;;;;;;;;9.32;100.00;99866.63;5044514;28;20289;-85
2023/06/26 17:01:41;;;;;;;;;;;;;;;9.26;100.00;99868.56;5044769;28;20462;-84
2023/06/26 17:04:07;;;;;;;;;;;;;;;9.14;100.00;99873.44;5044443;28;20276;-84
2023/06/26 17:06:32;;;;;;;;;;;;;;;9.16;100.00;99869.84;5045194;28;19966;-87
2023/06/26 17:08:57;;;;;;;;;;;;;;;9.14;100.00;99871.66;5043795;28;19923;-84
2023/06/26 17:11:22;;;;;;;;;;;;;;;9.18;100.00;99869.78;5043488;28;19921;-84
2023/06/26 17:13:48;;;;;;;;;;;;;;;9.14;100.00;99866.38;5044364;28;19960;-84
2023/06/26 17:16:13;;;;;;;;;;;;;;;9.10;100.00;99875.34;5044228;28;19974;-84
2023/06/26 17:18:39;;;;;;;;;;;;;;;9.03;100.00;99873.81;5043089;28;19990;-84
2023/06/26 17:21:04;;;;;;;;;;;;;;;8.98;100.00;99881.91;5044702;28;19921;-84
2023/06/26 17:23:30;;;;;;;;;;;;;;;9.00;100.00;99880.09;5044064;28;19920;-86
2023/06/26 17:25:57;;;;;;;;;;;;;;;9.00;100.00;99890.66;5043234;28;19929;-84
2023/06/26 17:28:22;;;;;;;;;;;;;;;9.00;100.00;99892.41;5042410;28;19925;-85
2023/06/26 17:30:48;;;;;;;;;;;;;;;9.01;100.00;99888.88;5039472;28;19928;-84
2023/06/26 17:33:13;;;;;;;;;;;;;;;8.96;100.00;99894.31;5043896;28;19923;-82
2023/06/26 17:35:38;;;;;;;;;;;;;;;8.95;100.00;99902.28;5043723;28;19925;-84
2023/06/26 17:38:04;;;;;;;;;;;;;;;9.11;100.00;99899.97;5026711;28;20330;-84
2023/06/26 17:40:30;;;;;;;;;;;;;;;8.95;100.00;99897.88;5024890;28;19913;-84
2023/06/26 17:42:55;;;;;;;;;;;;;;;8.93;100.00;99904.13;5045085;28;19921;-84
2023/06/26 17:45:21;;;;;;;;;;;;;;;8.86;100.00;99908.75;5044294;28;19959;-84
2023/06/26 17:47:47;;;;;;;;;;;;;;;8.87;100.00;99910.47;5042988;28;19920;-84
2023/06/26 17:50:13;;;;;;;;;;;;;;;8.91;100.00;99912.97;5044723;28;19921;-85
2023/06/26 17:52:38;;;;;;;;;;;;;;;8.91;100.00;99909.47;5042937;28;20020;-84
2023/06/26 17:55:04;;;;;;;;;;;;;;;8.89;100.00;99909.53;5043871;28;19928;-85
2023/06/26 17:57:29;;;;;;;;;;;;;;;8.89;100.00;99913.94;5042838;28;20287;-84
2023/06/26 17:59:54;;;;;;;;;;;;;;;8.93;100.00;99914.69;5043433;28;19917;-84
2023/06/26 18:02:20;;;;;;;;;;;;;;;8.93;100.00;99917.34;5043683;28;19920;-84
2023/06/26 18:04:45;;;;;;;;;;;;;;;8.88;100.00;99918.34;5043720;28;20283;-84
2023/06/26 18:07:10;;;;;;;;;;;;;;;8.91;100.00;99920.03;5043122;28;19917;-84
2023/06/26 18:09:36;;;;;;;;;;;;;;;8.86;100.00;99917.53;5043292;28;20384;-84
2023/06/26 18:12:01;;;;;;;;;;;;;;;8.94;100.00;99917.28;5042460;28;20261;-84
2023/06/26 18:14:26;;;;;;;;;;;;;;;8.96;100.00;99922.53;5043393;28;20007;-84
2023/06/26 18:16:51;;;;;;;;;;;;;;;8.91;100.00;99928.81;5042630;28;20364;-85
2023/06/26 18:19:17;;;;;;;;;;;;;;;8.94;100.00;99927.00;5036142;28;20280;-83
2023/06/26 18:21:42;;;;;;;;;;;;;;;9.00;100.00;99932.06;5039938;28;20019;-84
2023/06/26 18:24:07;;;;;;;;;;;;;;;8.96;100.00;99933.94;5039542;28;19987;-84
2023/06/26 18:26:32;;;;;;;;;;;;;;;8.94;100.00;99932.28;5042761;28;19921;-84
2023/06/26 18:28:58;;;;;;;;;;;;;;;8.95;100.00;99932.25;5040910;28;19925;-87
2023/06/26 18:31:24;;;;;;;;;;;;;;;8.96;100.00;99935.75;5041576;28;19918;-84
2023/06/26 18:33:49;;;;;;;;;;;;;;;8.94;100.00;99932.28;5025029;28;19917;-83
2023/06/26 18:36:17;;;;;;;;;;;;;;;8.94;100.00;99940.22;5043459;28;19924;-83
2023/06/26 18:38:43;;;;;;;;;;;;;;;8.90;100.00;99945.59;5043169;28;20368;-84
2023/06/26 18:41:09;;;;;;;;;;;;;;;8.95;100.00;99952.50;5038020;28;20018;-84
2023/06/26 18:43:34;;;;;;;;;;;;;;;8.95;100.00;99949.84;5037795;28;20059;-84
2023/06/26 18:45:59;;;;;;;;;;;;;;;8.89;100.00;99953.59;5042899;28;19928;-84
2023/06/26 18:48:25;;;;;;;;;;;;;;;8.96;100.00;99951.59;5042474;28;19970;-84
2023/06/26 18:50:50;;;;;;;;;;;;;;;8.96;100.00;99955.09;5043307;28;19921;-84
2023/06/26 18:53:15;;;;;;;;;;;;;;;8.99;100.00;99959.44;5039935;28;19927;-84
2023/06/26 18:55:41;;;;;;;;;;;;;;;8.96;100.00;99959.53;5040855;28;20394;-82
2023/06/26 18:58:06;;;;;;;;;;;;;;;8.88;100.00;99950.06;5042821;28;19927;-84
2023/06/26 19:00:31;;;;;;;;;;;;;;;8.87;100.00;99956.28;5042299;28;20338;-84
2023/06/26 19:03:00;;;;;;;;;;;;;;;8.91;100.00;99957.88;5042710;28;19917;-84
2023/06/26 19:05:25;;;;;;;;;;;;;;;8.87;100.00;99953.63;5042347;28;20364;-84
2023/06/26 19:07:51;;;;;;;;;;;;;;;8.88;100.00;99957.13;5042065;28;19917;-82
2023/06/26 19:10:16;;;;;;;;;;;;;;;8.84;100.00;99958.13;5041937;28;19990;-84
2023/06/26 19:12:53;;;;;;;;;;;;;;;8.81;100.00;99966.19;5034985;28;19925;-83
2023/06/26 19:15:19;;;;;;;;;;;;;;;8.92;100.00;99961.41;5038758;28;19925;-84
2023/06/26 19:17:44;;;;;;;;;;;;;;;8.94;100.00;99964.00;5041293;28;20356;-84
2023/06/26 19:20:10;;;;;;;;;;;;;;;9.02;100.00;99968.09;5043003;28;19972;-84
2023/06/26 19:22:36;;;;;;;;;;;;;;;8.96;100.00;99967.47;5042367;28;19917;-84
2023/06/26 19:25:01;;;;;;;;;;;;;;;8.96;100.00;99972.75;5042519;28;19924;-85
2023/06/26 19:27:27;;;;;;;;;;;;;;;9.00;100.00;99969.94;5039325;28;19921;-84
2023/06/26 19:29:55;;;;;;;;;;;;;;;8.98;100.00;99976.19;5038065;28;19931;-84
2023/06/26 19:32:21;;;;;;;;;;;;;;;8.97;100.00;99971.84;5042732;28;19931;-84
2023/06/26 19:34:49;;;;;;;;;;;;;;;8.93;100.00;99970.19;5041467;28;19925;-84
2023/06/26 19:37:20;;;;;;;;;;;;;;;8.94;100.00;99977.22;5019083;28;19921;-88
2023/06/26 19:39:47;;;;;;;;;;;;;;;8.98;100.00;99970.91;5023217;28;20000;-82
2023/06/26 19:42:13;;;;;;;;;;;;;;;8.95;100.00;99973.66;5041340;28;20007;-84
2023/06/26 19:44:38;;;;;;;;;;;;;;;8.96;100.00;99980.66;5022367;28;20007;-83
2023/06/26 19:47:03;;;;;;;;;;;;;;;8.93;100.00;99970.19;5023728;28;20392;-84
2023/06/26 19:49:32;;;;;;;;;;;;;;;8.95;100.00;99977.16;5039808;28;19964;-84
2023/06/26 19:51:59;;;;;;;;;;;;;;;8.94;100.00;99977.22;5038303;28;19925;-83
2023/06/26 19:54:32;;;;;;;;;;;;;;;8.89;100.00;99991.44;5021642;28;19925;-83
2023/06/26 19:57:00;;;;;;;;;;;;;;;8.89;100.00;99999.38;5039692;28;19921;-84
2023/06/26 19:59:27;;;;;;;;;;;;;;;8.86;100.00;99988.03;5041879;28;19968;-84
2023/06/26 20:01:52;;;;;;;;;;;;;;;8.90;100.00;99990.53;5022204;28;20291;-84
2023/06/26 20:04:18;;;;;;;;;;;;;;;8.95;100.00;99997.44;5039498;28;20041;-84
2023/06/26 20:06:44;;;;;;;;;;;;;;;8.89;100.00;99998.50;5036901;28;20384;-85
2023/06/26 20:09:09;;;;;;;;;;;;;;;8.87;100.00;100003.84;5019280;28;20437;-83
2023/06/26 20:11:35;;;;;;;;;;;;;;;8.91;100.00;100000.16;5041031;28;19917;-84
2023/06/26 20:14:01;;;;;;;;;;;;;;;8.91;100.00;100007.25;5042047;28;19921;-84
2023/06/26 20:16:26;;;;;;;;;;;;;;;8.94;100.00;100011.56;5027005;28;19921;-83
2023/06/26 20:18:51;;;;;;;;;;;;;;;8.96;100.00;100015.03;5044204;28;19960;-84
2023/06/26 20:21:17;;;;;;;;;;;;;;;8.90;100.00;100019.59;5027513;28;19999;-84
2023/06/26 20:23:42;;;;;;;;;;;;;;;8.85;100.00;100018.00;5027119;28;19916;-84
2023/06/26 20:26:07;;;;;;;;;;;;;;;8.98;100.00;100018.47;5044302;28;19921;-83
2023/06/26 20:28:32;;;;;;;;;;;;;;;8.93;100.00;100020.41;5045078;28;20289;-82
2023/06/26 20:30:58;;;;;;;;;;;;;;;8.96;100.00;100022.97;5027410;28;20322;-83
2023/06/26 20:33:23;;;;;;;;;;;;;;;8.98;100.00;100029.91;5045658;28;19924;-84
2023/06/26 20:35:51;;;;;;;;;;;;;;;8.95;100.00;100024.75;5045138;28;19921;-83